createdAt,value
2022-09-07T00:01:42.881Z,101402.84
2022-09-07T00:04:45.153Z,101396.91
2022-09-07T00:07:47.513Z,101398.28
2022-09-07T00:10:57.969Z,101401.19
2022-09-07T00:14:00.140Z,101390.81
2022-09-07T00:17:02.406Z,101384.78
2022-09-07T00:20:06.500Z,101387.13
2022-09-07T00:23:08.874Z,101385.34
2022-09-07T00:26:14.586Z,101379.50
2022-09-07T00:29:16.821Z,101379.59
2022-09-07T00:32:18.795Z,101378.44
2022-09-07T00:35:21.012Z,101388.19
2022-09-07T00:38:23.006Z,101377.78
2022-09-07T00:41:25.497Z,101377.97
2022-09-07T00:45:04.829Z,101380.38
2022-09-07T00:48:17.097Z,101375.34
2022-09-07T00:51:42.762Z,101377.41
2022-09-07T00:54:48.705Z,101379.88
2022-09-07T00:57:53.423Z,101384.00
2022-09-07T01:00:56.317Z,101381.94
2022-09-07T01:03:59.730Z,101384.50
2022-09-07T01:07:03.511Z,101377.16
2022-09-07T01:10:06.968Z,101375.69
2022-09-07T01:13:09.434Z,101384.31
2022-09-07T01:16:30.498Z,101390.69
2022-09-07T01:20:00.109Z,101385.41
2022-09-07T01:23:05.120Z,101388.06
2022-09-07T01:26:46.453Z,101386.50
2022-09-07T01:30:07.745Z,101387.91
2022-09-07T01:33:17.496Z,101383.44
2022-09-07T01:36:40.921Z,101386.16
2022-09-07T01:39:54.241Z,101381.81
2022-09-07T01:43:02.383Z,101382.81
2022-09-07T01:46:11.427Z,101382.50
2022-09-07T01:49:37.163Z,101390.44
2022-09-07T01:52:49.662Z,101390.13
2022-09-07T01:55:57.535Z,101383.22
2022-09-07T01:59:04.895Z,101388.19
2022-09-07T02:02:11.028Z,101392.22
2022-09-07T02:05:23.901Z,101397.03
2022-09-07T02:08:32.160Z,101395.66
2022-09-07T02:11:46.727Z,101388.84
2022-09-07T02:14:53.085Z,101389.31
2022-09-07T02:18:02.655Z,101391.38
2022-09-07T02:21:06.272Z,101389.19
2022-09-07T02:24:16.336Z,101371.59
2022-09-07T02:27:24.795Z,101366.41
2022-09-07T02:30:27.138Z,101372.22
2022-09-07T02:33:29.475Z,101368.50
2022-09-07T02:36:38.607Z,101369.88
2022-09-07T02:39:40.795Z,101374.81
2022-09-07T02:42:46.902Z,101372.94
2022-09-07T02:45:51.685Z,101369.13
2022-09-07T02:49:09.450Z,101361.41
2022-09-07T02:52:35.166Z,101363.59
2022-09-07T02:55:45.703Z,101361.75
2022-09-07T02:59:07.148Z,101358.84
2022-09-07T03:02:46.946Z,101354.13
2022-09-07T03:06:05.138Z,101361.16
2022-09-07T03:09:11.598Z,101361.84
2022-09-07T03:12:14.380Z,101360.84
2022-09-07T03:15:22.308Z,101354.72
2022-09-07T03:18:25.713Z,101354.38
2022-09-07T03:21:27.937Z,101356.00
2022-09-07T03:24:30.033Z,101350.00
2022-09-07T03:27:32.974Z,101355.88
2022-09-07T03:30:35.120Z,101353.78
2022-09-07T03:33:37.449Z,101355.44
2022-09-07T03:36:39.514Z,101354.50
2022-09-07T03:39:41.818Z,101364.28
2022-09-07T03:42:48.328Z,101359.25
2022-09-07T03:45:50.706Z,101358.41
2022-09-07T03:48:53.519Z,101360.38
2022-09-07T03:51:55.799Z,101356.00
2022-09-07T03:54:57.908Z,101358.75
2022-09-07T03:58:00.121Z,101362.75
2022-09-07T04:01:07.682Z,101351.75
2022-09-07T04:04:09.980Z,101358.78
2022-09-07T04:07:12.719Z,101347.53
2022-09-07T04:10:14.980Z,101347.31
2022-09-07T04:13:16.975Z,101360.13
2022-09-07T04:16:22.606Z,101362.94
2022-09-07T04:19:24.986Z,101366.44
2022-09-07T04:22:27.339Z,101362.28
2022-09-07T04:25:29.457Z,101359.75
2022-09-07T04:28:32.049Z,101363.09
2022-09-07T04:31:35.545Z,101364.09
2022-09-07T04:34:37.862Z,101365.13
2022-09-07T04:37:39.876Z,101373.94
2022-09-07T04:40:42.241Z,101364.50
2022-09-07T04:43:45.711Z,101370.72
2022-09-07T04:46:47.877Z,101372.59
2022-09-07T04:49:52.931Z,101376.44
2022-09-07T04:52:55.143Z,101372.97
2022-09-07T04:56:00.369Z,101376.94
2022-09-07T04:59:02.819Z,101378.78
2022-09-07T05:02:05.189Z,101377.22
2022-09-07T05:05:07.882Z,101375.66
2022-09-07T05:08:10.111Z,101378.66
2022-09-07T05:11:13.604Z,101376.44
2022-09-07T05:14:15.666Z,101378.31
2022-09-07T05:17:18.731Z,101373.44
2022-09-07T05:20:21.349Z,101374.28
2022-09-07T05:23:24.400Z,101380.78
2022-09-07T05:26:29.042Z,101377.53
2022-09-07T05:32:53.737Z,101377.38
2022-09-07T05:35:57.976Z,101380.25
2022-09-07T05:39:00.288Z,101374.66
2022-09-07T05:42:02.709Z,101369.28
2022-09-07T05:45:05.347Z,101373.81
2022-09-07T05:48:07.756Z,101369.00
2022-09-07T05:51:10.540Z,101360.44
2022-09-07T05:54:13.180Z,101369.63
2022-09-07T05:57:15.221Z,101371.00
2022-09-07T06:00:17.449Z,101358.41
2022-09-07T06:03:19.784Z,101355.13
2022-09-07T06:06:22.388Z,101348.94
2022-09-07T06:09:27.274Z,101344.47
2022-09-07T06:12:32.656Z,101334.47
2022-09-07T06:15:34.816Z,101328.53
2022-09-07T06:18:42.346Z,101334.97
2022-09-07T06:21:44.347Z,101327.19
2022-09-07T06:24:46.588Z,101326.41
2022-09-07T06:27:49.414Z,101321.13
2022-09-07T06:30:51.726Z,101325.66
2022-09-07T06:33:54.935Z,101322.13
2022-09-07T06:36:57.218Z,101306.09
2022-09-07T06:39:59.396Z,101304.22
2022-09-07T06:43:01.573Z,101306.75
2022-09-07T06:49:26.781Z,101302.78
2022-09-07T06:52:29.037Z,101292.84
2022-09-07T06:55:31.408Z,101297.91
2022-09-07T06:58:33.979Z,101295.75
2022-09-07T07:01:36.435Z,101292.97
2022-09-07T07:04:41.038Z,101297.84
2022-09-07T07:07:44.071Z,101303.19
2022-09-07T07:10:46.289Z,101309.06
2022-09-07T07:13:48.885Z,101307.56
2022-09-07T07:16:51.067Z,101304.09
2022-09-07T07:19:53.592Z,101312.75
2022-09-07T07:22:56.052Z,101327.66
2022-09-07T07:26:03.597Z,101316.84
2022-09-07T07:29:05.834Z,101323.47
2022-09-07T07:32:08.193Z,101324.94
2022-09-07T07:35:11.186Z,101316.38
2022-09-07T07:48:20.067Z,101306.63
2022-09-07T07:51:22.918Z,101300.66
2022-09-07T07:54:25.037Z,101301.00
2022-09-07T07:57:27.739Z,101295.03
2022-09-07T08:00:50.810Z,101290.47
2022-09-07T08:03:53.172Z,101290.25
2022-09-07T08:06:55.227Z,101289.13
2022-09-07T08:09:57.393Z,101283.34
2022-09-07T08:12:59.380Z,101290.28
2022-09-07T08:16:02.062Z,101278.75
2022-09-07T08:19:05.770Z,101278.06
2022-09-07T08:22:09.895Z,101276.91
2022-09-07T08:25:11.993Z,101278.06
2022-09-07T08:28:14.237Z,101276.16
2022-09-07T08:31:17.177Z,101264.91
2022-09-07T08:34:19.750Z,101256.91
2022-09-07T08:37:22.134Z,101261.06
2022-09-07T08:40:24.441Z,101253.53
2022-09-07T08:43:50.041Z,101252.66
2022-09-07T08:47:03.616Z,101254.78
2022-09-07T08:50:17.727Z,101252.91
2022-09-07T08:53:21.410Z,101239.19
2022-09-07T08:57:20.511Z,101246.34
2022-09-07T09:00:17.072Z,101239.75
2022-09-07T09:03:32.834Z,101226.91
2022-09-07T09:06:52.559Z,101225.22
2022-09-07T09:10:33.491Z,101225.78
2022-09-07T09:13:56.003Z,101223.28
2022-09-07T09:17:09.703Z,101217.25
2022-09-07T09:20:25.176Z,101206.03
2022-09-07T09:23:32.372Z,101212.03
2022-09-07T09:26:35.972Z,101196.81
2022-09-07T09:29:40.224Z,101202.63
2022-09-07T09:32:46.426Z,101198.72
2022-09-07T09:35:53.126Z,101190.97
2022-09-07T09:38:56.530Z,101204.84
2022-09-07T09:42:15.691Z,101198.56
2022-09-07T09:45:21.476Z,101195.50
2022-09-07T09:48:39.967Z,101183.09
2022-09-07T09:55:32.654Z,101178.84
2022-09-07T10:05:36.227Z,101167.09
2022-09-07T10:08:38.584Z,101165.47
2022-09-07T10:12:06.261Z,101169.41
2022-09-07T10:15:29.907Z,101171.63
2022-09-07T10:18:36.511Z,101171.31
2022-09-07T10:21:38.625Z,101158.06
2022-09-07T10:24:41.593Z,101157.50
2022-09-07T10:27:45.975Z,101165.38
2022-09-07T10:31:26.146Z,101158.47
2022-09-07T10:34:43.906Z,101143.44
2022-09-07T10:37:56.440Z,101154.44
2022-09-07T10:41:07.467Z,101145.56
2022-09-07T10:44:18.254Z,101141.97
2022-09-07T10:48:14.079Z,101141.56
2022-09-07T10:51:32.349Z,101126.19
2022-09-07T10:54:40.227Z,101132.13
2022-09-07T10:59:01.044Z,101121.84
2022-09-07T11:01:50.401Z,101126.63
2022-09-07T11:05:20.556Z,101134.78
2022-09-07T11:12:22.887Z,101123.25
2022-09-07T11:15:31.803Z,101105.63
2022-09-07T11:19:34.945Z,101115.25
2022-09-07T11:22:57.479Z,101108.75
2022-09-07T11:26:30.439Z,101106.88
2022-09-07T11:29:52.544Z,101096.81
2022-09-07T11:33:03.416Z,101111.75
2022-09-07T11:36:15.222Z,101101.16
2022-09-07T11:39:23.800Z,101095.72
2022-09-07T11:42:49.576Z,101097.59
2022-09-07T11:45:59.696Z,101093.41
2022-09-07T11:49:04.502Z,101091.00
2022-09-07T12:00:49.869Z,101093.53
2022-09-07T12:04:15.315Z,101074.69
2022-09-07T12:07:39.589Z,101076.91
2022-09-07T12:11:11.303Z,101074.44
2022-09-07T12:14:29.046Z,101073.78
2022-09-07T12:17:37.632Z,101068.34
2022-09-07T12:20:42.826Z,101064.00
2022-09-07T12:23:46.428Z,101068.16
2022-09-07T12:26:50.662Z,101066.97
2022-09-07T12:29:59.720Z,101078.13
2022-09-07T12:33:06.487Z,101070.00
2022-09-07T12:36:34.979Z,101067.75
2022-09-07T12:39:39.960Z,101053.63
2022-09-07T12:42:43.291Z,101051.88
2022-09-07T12:45:51.595Z,101050.81
2022-09-07T12:49:06.581Z,101040.59
2022-09-07T12:52:31.480Z,101039.56
2022-09-07T12:56:18.857Z,101041.47
2022-09-07T12:59:49.505Z,101035.91
2022-09-07T13:03:07.740Z,101037.53
2022-09-07T13:07:01.654Z,101035.81
2022-09-07T13:09:56.539Z,101021.03
2022-09-07T13:13:06.021Z,101029.25
2022-09-07T13:16:11.780Z,101031.00
2022-09-07T13:19:46.017Z,101020.81
2022-09-07T13:22:48.272Z,101017.50
2022-09-07T13:25:53.634Z,101010.34
2022-09-07T13:28:58.066Z,101005.94
2022-09-07T13:33:07.914Z,101012.25
2022-09-07T13:35:46.740Z,101004.78
2022-09-07T13:38:50.692Z,101004.06
2022-09-07T13:41:56.587Z,101003.16
2022-09-07T13:45:01.880Z,100993.97
2022-09-07T13:48:33.471Z,101001.78
2022-09-07T13:51:40.696Z,101005.31
2022-09-07T13:55:25.615Z,100993.13
2022-09-07T13:58:41.853Z,100994.72
2022-09-07T14:01:47.513Z,101002.06
2022-09-07T14:04:51.535Z,100995.97
2022-09-07T14:07:53.946Z,100988.72
2022-09-07T14:10:56.304Z,100979.94
2022-09-07T14:14:24.481Z,100975.28
2022-09-07T14:17:28.026Z,100969.31
2022-09-07T14:20:32.437Z,100978.78
2022-09-07T14:23:36.659Z,100968.72
2022-09-07T14:26:46.862Z,100983.88
2022-09-07T14:29:49.390Z,100972.31
2022-09-07T14:32:57.516Z,100980.06
2022-09-07T14:36:00.216Z,100957.13
2022-09-07T14:39:04.780Z,100960.03
2022-09-07T14:42:07.741Z,100958.91
2022-09-07T14:45:39.703Z,100956.28
2022-09-07T14:48:45.227Z,100946.44
2022-09-07T14:51:48.686Z,100943.53
2022-09-07T14:54:53.931Z,100934.50
2022-09-07T14:58:15.156Z,100943.44
2022-09-07T15:04:42.428Z,100944.03
2022-09-07T15:08:04.149Z,100947.78
2022-09-07T15:14:36.245Z,100932.03
2022-09-07T15:17:45.996Z,100934.13
2022-09-07T15:20:48.360Z,100930.03
2022-09-07T15:23:53.352Z,100936.31
2022-09-07T15:27:03.368Z,100931.88
2022-09-07T15:30:06.719Z,100936.84
2022-09-07T15:33:09.043Z,100935.88
2022-09-07T15:36:13.717Z,100936.69
2022-09-07T15:39:30.064Z,100934.59
2022-09-07T15:45:54.731Z,100941.53
2022-09-07T15:48:57.370Z,100943.19
2022-09-07T15:52:07.006Z,100940.41
2022-09-07T15:55:09.603Z,100946.09
2022-09-07T15:58:13.061Z,100939.34
2022-09-07T16:04:38.784Z,100935.44
2022-09-07T16:11:19.742Z,100920.91
2022-09-07T16:14:22.456Z,100930.81
2022-09-07T16:17:27.113Z,100933.13
2022-09-07T16:20:33.391Z,100926.22
2022-09-07T16:23:36.362Z,100928.94
2022-09-07T16:26:38.676Z,100933.84
2022-09-07T16:29:40.888Z,100922.66
2022-09-07T16:32:44.779Z,100924.25
2022-09-07T16:36:00.908Z,100921.16
2022-09-07T16:39:03.663Z,100920.88
2022-09-07T16:42:08.980Z,100917.31
2022-09-07T16:48:35.031Z,100914.25
2022-09-07T16:51:39.726Z,100924.66
2022-09-07T16:54:42.124Z,100930.63
2022-09-07T17:01:08.763Z,100931.84
2022-09-07T17:04:11.762Z,100934.53
2022-09-07T17:07:14.086Z,100921.94
2022-09-07T17:10:16.602Z,100928.13
2022-09-07T17:13:18.971Z,100937.94
2022-09-07T17:16:24.009Z,100935.00
2022-09-07T17:19:29.772Z,100938.31
2022-09-07T17:22:32.528Z,100929.25
2022-09-07T17:25:34.559Z,100933.53
2022-09-07T17:28:38.118Z,100944.72
2022-09-07T17:35:02.714Z,100948.41
2022-09-07T17:39:14.090Z,100970.34
2022-09-07T17:41:28.565Z,100960.91
2022-09-07T17:44:36.010Z,100955.34
2022-09-07T17:47:40.587Z,100964.03
2022-09-07T17:50:43.184Z,100973.53
2022-09-07T17:53:46.132Z,100966.88
2022-09-07T17:57:06.728Z,100974.41
2022-09-07T18:00:11.148Z,100974.78
2022-09-07T18:03:15.017Z,100972.38
2022-09-07T18:06:21.332Z,100974.44
2022-09-07T18:09:24.643Z,100977.44
2022-09-07T18:12:27.077Z,100967.13
2022-09-07T18:15:29.223Z,100970.03
2022-09-07T18:18:31.579Z,100976.56
2022-09-07T18:21:41.332Z,100982.09
2022-09-07T18:24:48.609Z,100967.06
2022-09-07T18:29:03.181Z,100960.13
2022-09-07T18:31:13.843Z,100964.69
2022-09-07T18:34:16.653Z,100964.97
2022-09-07T18:37:19.797Z,100957.25
2022-09-07T18:40:21.859Z,100964.41
2022-09-07T18:43:24.294Z,100970.69
2022-09-07T18:46:26.691Z,100965.41
2022-09-07T18:49:29.166Z,100980.72
2022-09-07T18:55:53.502Z,100974.69
2022-09-07T18:58:58.629Z,100975.63
2022-09-07T19:02:04.487Z,100966.88
2022-09-07T19:08:32.901Z,100982.22
2022-09-07T19:11:34.963Z,100981.31
2022-09-07T19:14:37.334Z,100974.25
2022-09-07T19:17:39.582Z,100981.38
2022-09-07T19:20:42.173Z,100977.78
2022-09-07T19:23:44.233Z,100976.00
2022-09-07T19:26:48.207Z,100982.25
2022-09-07T19:29:50.322Z,100980.47
2022-09-07T19:32:52.727Z,100974.28
2022-09-07T19:35:54.693Z,100977.81
2022-09-07T19:38:57.276Z,100967.16
2022-09-07T19:41:59.617Z,100968.91
2022-09-07T19:45:02.150Z,100971.53
2022-09-07T19:48:05.341Z,100976.94
2022-09-07T19:51:12.693Z,100982.31
2022-09-07T19:54:15.249Z,100968.09
2022-09-07T19:57:18.016Z,100986.78
2022-09-07T20:00:20.506Z,100981.44
2022-09-07T20:03:23.011Z,100984.13
2022-09-07T20:06:26.069Z,100981.56
2022-09-07T20:09:28.357Z,100979.72
2022-09-07T20:12:30.667Z,100985.06
2022-09-07T20:15:33.883Z,100977.97
2022-09-07T20:18:36.403Z,100979.78
2022-09-07T20:21:38.673Z,100988.72
2022-09-07T20:24:40.819Z,100981.59
2022-09-07T20:27:43.124Z,100982.56
2022-09-07T20:30:45.136Z,100980.84
2022-09-07T20:33:49.292Z,100980.00
2022-09-07T20:36:51.942Z,100978.28
2022-09-07T20:39:55.277Z,100978.28
2022-09-07T20:42:58.873Z,100973.88
2022-09-07T20:46:01.316Z,100977.50
2022-09-07T20:49:04.767Z,100977.53
2022-09-07T20:52:07.100Z,100979.34
2022-09-07T20:55:09.496Z,100982.09
2022-09-07T20:58:12.326Z,100978.53
2022-09-07T21:01:16.811Z,100983.03
2022-09-07T21:04:19.252Z,100980.44
2022-09-07T21:07:21.323Z,100984.94
2022-09-07T21:10:24.317Z,100985.84
2022-09-07T21:13:26.325Z,100984.97
2022-09-07T21:16:29.306Z,100984.13
2022-09-07T21:19:31.558Z,100990.41
2022-09-07T21:22:33.791Z,100994.84
2022-09-07T21:25:43.934Z,100994.91
2022-09-07T21:28:46.224Z,100990.47
2022-09-07T21:31:48.686Z,100992.28
2022-09-07T21:34:50.942Z,100995.00
2022-09-07T21:37:53.040Z,101003.88
2022-09-07T21:40:55.272Z,100996.78
2022-09-07T21:43:58.682Z,100984.41
2022-09-07T21:47:00.862Z,100985.28
2022-09-07T21:50:03.114Z,100991.50
2022-09-07T21:53:05.430Z,100999.53
2022-09-07T21:56:10.868Z,100995.09
2022-09-07T21:59:13.190Z,100990.66
2022-09-07T22:02:15.432Z,101002.19
2022-09-07T22:05:17.947Z,100993.31
2022-09-07T22:08:20.042Z,100980.91
2022-09-07T22:11:23.924Z,100980.88
2022-09-07T22:14:26.294Z,100981.81
2022-09-07T22:17:28.576Z,100986.25
2022-09-07T22:20:32.225Z,100986.22
2022-09-07T22:23:37.543Z,100982.66
2022-09-07T22:26:39.662Z,100980.91
2022-09-07T22:29:41.897Z,100971.16
2022-09-07T22:32:47.836Z,100973.81
2022-09-07T22:35:50.651Z,100976.47
2022-09-07T22:38:54.115Z,100969.38
2022-09-07T22:41:56.446Z,100964.94
2022-09-07T22:44:58.797Z,100972.00
2022-09-07T22:48:01.352Z,100972.03
2022-09-07T22:51:04.673Z,100977.31
2022-09-07T22:54:07.994Z,100979.09
2022-09-07T22:57:10.117Z,100987.09
2022-09-07T23:00:13.328Z,100982.66
2022-09-07T23:03:15.343Z,100979.09
2022-09-07T23:06:23.304Z,100981.75
2022-09-07T23:09:25.258Z,100998.63
2022-09-07T23:12:27.501Z,100991.50
2022-09-07T23:15:29.863Z,100993.28
2022-09-07T23:18:33.288Z,100984.38
2022-09-07T23:21:35.462Z,100987.91
2022-09-07T23:24:40.191Z,100985.22
2022-09-07T23:27:42.158Z,100981.69
2022-09-07T23:30:48.728Z,100972.81
2022-09-07T23:33:51.719Z,100971.00
2022-09-07T23:36:54.206Z,100970.97
2022-09-07T23:39:56.309Z,100963.81
2022-09-07T23:42:58.767Z,100963.78
2022-09-07T23:46:00.819Z,100972.63
2022-09-07T23:49:03.377Z,100969.09
2022-09-07T23:52:05.464Z,100967.31
2022-09-07T23:55:10.137Z,100964.66
2022-09-07T23:58:12.180Z,100961.09
